Fernbank, Alabama
Current Conditions -  °F | °C
As of 12:58 AM on Friday 19 Dec 2014 (Local Time) from KCBM Reporting Station
Few Clouds Few Clouds  
Wind Chill: 36°   Ceiling: Unl
Heat Index: 36°   Visibility: 10mi
Dew Point: 34°   Wind: 0mph
Humidity: 94%   Direction: NA
Pressure: 30.2"   Gusts: NA
Location:  33.5494°N, 88.1933°W
Report Text: KCBM 190658Z AUTO 00000KT 10SM FEW220 02/01 A3020 RMK AO2 SLP231 T00210013 $
Loading
Personal Weather Stations






























Interactive Weather Map New forecast layout! Learn more

10-Day Weather Forecast

Advertisements
Track Severe Weather on mobile